Time;durP1;ratioP1;P1;durP2;ratioP2;P2;SDS_P1;SDS_P2;PMS_P1;PMS_P2;Temp;Humidity;BMP_temperature;BMP_pressure;BME280_temperature;BME280_humidity;BME280_pressure;Samples;Min_cycle;Max_cycle;Signal;HPM_P1;HPM_P2
2023/09/04 00:07:51;;;;;;;11.50;7.13;;;;;;;29.07;49.79;101064.97;21070963;28;20398;-60
2023/09/04 00:17:52;;;;;;;9.43;6.65;;;;;;;29.20;49.67;101082.84;21056354;28;20052;-60
2023/09/04 00:27:55;;;;;;;10.88;6.57;;;;;;;29.22;49.50;101100.25;21037017;28;20495;-60
2023/09/04 00:37:56;;;;;;;10.55;7.13;;;;;;;29.19;49.47;101095.28;21077804;28;20040;-61
2023/09/04 00:47:58;;;;;;;9.30;7.68;;;;;;;29.10;49.48;101067.13;21090223;28;20043;-61
2023/09/04 00:58:03;;;;;;;10.07;7.13;;;;;;;29.26;49.16;101098.41;21076231;28;20097;-60
2023/09/04 01:08:05;;;;;;;7.47;6.72;;;;;;;29.28;49.00;101115.84;21083355;28;20044;-62
2023/09/04 01:18:08;;;;;;;8.93;7.80;;;;;;;29.28;49.39;101113.00;21076449;28;20391;-60
2023/09/04 01:28:21;;;;;;;10.55;7.80;;;;;;;29.29;49.31;101113.84;21088494;28;20040;-61
2023/09/04 01:38:22;;;;;;;11.55;7.45;;;;;;;29.21;49.33;101092.13;21087548;28;20555;-62
2023/09/04 01:48:27;;;;;;;7.40;6.60;;;;;;;29.29;49.05;101106.22;21082071;28;20066;-61
2023/09/04 01:58:28;;;;;;;8.52;7.03;;;;;;;29.27;49.26;101107.69;21085913;28;20044;-62
2023/09/04 02:08:37;;;;;;;8.50;6.68;;;;;;;29.28;49.41;101107.38;21085552;28;20097;-62
2023/09/04 02:18:39;;;;;;;6.97;6.22;;;;;;;29.36;49.26;101114.97;21032498;28;20448;-61
2023/09/04 02:28:40;;;;;;;7.97;6.80;;;;;;;29.35;49.19;101118.94;21084013;28;20032;-61
2023/09/04 02:38:42;;;;;;;9.07;7.20;;;;;;;29.34;49.25;101114.47;21081062;28;20047;-61
2023/09/04 02:48:45;;;;;;;10.52;7.45;;;;;;;29.38;49.45;101121.13;21080666;28;20048;-61
2023/09/04 02:58:47;;;;;;;9.88;7.13;;;;;;;29.40;49.24;101145.31;21076716;28;20116;-62
2023/09/04 03:08:51;;;;;;;9.68;7.45;;;;;;;29.40;49.42;101139.69;21072050;28;20048;-61
2023/09/04 03:18:52;;;;;;;11.10;6.90;;;;;;;29.42;49.14;101145.81;21072571;28;20056;-63
2023/09/04 03:28:54;;;;;;;9.60;6.93;;;;;;;29.43;49.17;101139.84;21070630;28;20032;-61
2023/09/04 03:38:55;;;;;;;10.85;7.03;;;;;;;29.40;49.67;101134.03;21068133;28;20475;-61
2023/09/04 03:48:56;;;;;;;12.55;7.72;;;;;;;29.45;50.02;101150.78;21073494;28;20040;-62
2023/09/04 03:58:58;;;;;;;10.82;7.35;;;;;;;29.38;50.00;101143.66;21068590;28;20090;-62
2023/09/04 04:08:59;;;;;;;11.05;7.07;;;;;;;29.50;50.06;101147.78;21059854;28;20074;-62
2023/09/04 04:19:01;;;;;;;13.00;7.03;;;;;;;29.51;50.56;101144.63;21072191;28;20089;-61
2023/09/04 04:29:03;;;;;;;8.13;6.32;;;;;;;29.47;50.61;101134.38;21075203;28;20048;-62
2023/09/04 04:39:04;;;;;;;9.00;7.07;;;;;;;29.58;51.33;101121.59;21033436;28;20035;-62
2023/09/04 04:49:05;;;;;;;7.47;6.75;;;;;;;29.26;50.73;101077.84;21072657;28;20040;-60
2023/09/04 04:59:10;;;;;;;6.88;6.18;;;;;;;29.58;50.74;101136.50;21073023;28;20556;-62
2023/09/04 05:09:12;;;;;;;11.23;7.20;;;;;;;29.55;50.54;101117.47;21072371;28;20032;-61
2023/09/04 05:19:13;;;;;;;10.80;6.88;;;;;;;29.60;50.49;101119.28;21016434;28;20032;-61
2023/09/04 05:29:15;;;;;;;7.13;6.43;;;;;;;29.61;50.67;101118.09;21068951;28;20066;-60
2023/09/04 05:39:16;;;;;;;7.45;6.20;;;;;;;29.57;50.61;101103.03;21063134;28;20043;-61
2023/09/04 05:49:17;;;;;;;7.65;6.38;;;;;;;29.62;50.61;101105.66;21077204;28;20032;-62
2023/09/04 05:59:19;;;;;;;7.90;6.20;;;;;;;29.61;50.70;101098.38;21080193;28;20671;-61
2023/09/04 06:09:21;;;;;;;6.20;5.55;;;;;;;29.62;50.57;101111.28;21079886;28;20033;-62
2023/09/04 06:19:22;;;;;;;9.25;6.70;;;;;;;29.63;50.55;101110.13;21000287;28;20082;-60
2023/09/04 06:29:24;;;;;;;8.18;5.90;;;;;;;29.63;50.59;101096.84;21032837;28;20040;-61
2023/09/04 06:39:26;;;;;;;6.63;5.82;;;;;;;29.60;50.46;101097.53;21079261;28;20483;-61
2023/09/04 06:49:28;;;;;;;6.82;6.22;;;;;;;29.64;50.62;101092.03;21077178;28;20043;-60
2023/09/04 06:59:29;;;;;;;6.90;6.20;;;;;;;29.65;50.76;101099.34;21079257;28;20387;-62
2023/09/04 07:09:30;;;;;;;7.18;6.25;;;;;;;29.64;50.63;101092.03;21074996;28;20036;-60
2023/09/04 07:19:32;;;;;;;7.15;6.28;;;;;;;29.66;50.61;101084.06;21072663;28;20070;-61
2023/09/04 07:29:33;;;;;;;6.93;6.03;;;;;;;29.55;50.72;101065.84;21066356;28;20036;-61
2023/09/04 07:39:39;;;;;;;7.20;5.72;;;;;;;29.65;50.62;101088.06;21071995;28;20043;-61
2023/09/04 07:49:40;;;;;;;6.10;5.50;;;;;;;29.67;50.52;101094.19;21073987;28;20040;-61
2023/09/04 07:59:42;;;;;;;6.97;6.28;;;;;;;29.66;50.44;101086.91;21070815;28;20533;-62
2023/09/04 08:09:43;;;;;;;7.10;6.07;;;;;;;29.68;50.70;101093.00;21063661;28;20044;-61
2023/09/04 08:19:44;;;;;;;6.72;6.03;;;;;;;29.68;50.53;101087.38;21064943;28;20044;-61
2023/09/04 08:29:46;;;;;;;6.28;5.68;;;;;;;29.69;50.67;101088.19;21073721;28;20097;-62
2023/09/04 08:39:49;;;;;;;6.78;6.18;;;;;;;29.67;50.59;101091.38;21075951;28;20044;-62
2023/09/04 08:49:53;;;;;;;6.13;5.53;;;;;;;29.70;50.55;101081.41;21075296;28;20568;-61
2023/09/04 08:59:54;;;;;;;5.88;5.38;;;;;;;29.67;50.54;101079.25;21086149;28;20106;-60
2023/09/04 09:10:02;;;;;;;6.95;6.05;;;;;;;29.59;50.57;101058.38;21090970;28;20074;-62
2023/09/04 09:20:03;;;;;;;6.43;5.82;;;;;;;29.68;50.45;101064.81;21088967;28;20495;-61
2023/09/04 09:30:05;;;;;;;6.43;5.82;;;;;;;29.66;50.40;101067.16;21086889;28;20044;-61
2023/09/04 09:40:09;;;;;;;6.65;6.05;;;;;;;29.66;50.58;101080.44;21079970;28;20449;-61
2023/09/04 09:50:15;;;;;;;5.80;5.30;;;;;;;29.69;50.51;101105.97;21084478;28;20104;-62
2023/09/04 10:00:18;;;;;;;6.55;5.95;;;;;;;29.70;50.59;101107.63;21081823;28;20089;-61
2023/09/04 10:10:20;;;;;;;6.32;5.72;;;;;;;29.65;50.31;101092.88;21082957;28;20044;-62
2023/09/04 10:20:22;;;;;;;6.53;5.80;;;;;;;29.71;50.22;101112.09;21066208;28;20032;-61
2023/09/04 10:30:30;;;;;;;6.75;6.15;;;;;;;29.69;50.31;101117.25;21077533;28;20036;-60
2023/09/04 10:40:34;;;;;;;5.82;5.32;;;;;;;29.70;50.49;101138.66;21080236;28;20399;-62
2023/09/04 10:50:38;;;;;;;6.38;5.78;;;;;;;29.70;50.77;101141.47;21079768;28;20429;-60
2023/09/04 11:00:40;;;;;;;6.18;5.57;;;;;;;29.70;50.55;101158.38;21079093;28;20040;-60
2023/09/04 11:10:42;;;;;;;6.53;5.85;;;;;;;29.70;50.52;101175.31;21058654;28;20048;-61
2023/09/04 11:20:45;;;;;;;6.47;5.88;;;;;;;29.71;50.30;101182.59;21056133;28;20054;-61
2023/09/04 11:30:46;;;;;;;6.88;5.63;;;;;;;29.66;50.66;101173.50;21065271;28;20048;-61
2023/09/04 11:40:48;;;;;;;6.32;5.72;;;;;;;29.70;50.59;101180.94;21076493;28;20043;-61
2023/09/04 11:50:51;;;;;;;10.38;6.13;;;;;;;29.70;50.51;101174.50;21078369;28;20039;-61
2023/09/04 12:00:52;;;;;;;7.35;6.10;;;;;;;29.47;50.45;101154.94;21077690;28;20052;-61
2023/09/04 12:10:53;;;;;;;6.38;5.78;;;;;;;29.70;50.37;101172.50;21024825;28;20028;-62
2023/09/04 12:20:55;;;;;;;7.93;6.38;;;;;;;29.67;50.20;101159.06;21044683;28;20089;-61
2023/09/04 12:30:56;;;;;;;6.90;6.30;;;;;;;29.70;50.22;101144.28;21081503;28;20043;-61
2023/09/04 12:40:58;;;;;;;6.90;6.25;;;;;;;29.68;50.19;101123.22;21100684;28;20123;-63
2023/09/04 12:50:59;;;;;;;6.18;5.57;;;;;;;29.71;50.24;101131.84;21103474;28;20044;-61
2023/09/04 13:01:02;;;;;;;7.50;6.45;;;;;;;29.71;50.16;101165.69;21102694;28;20401;-61
2023/09/04 13:11:04;;;;;;;6.35;5.75;;;;;;;29.71;50.22;101164.84;21045305;28;20041;-63
2023/09/04 13:21:05;;;;;;;6.55;5.95;;;;;;;29.71;50.23;101143.13;21018745;28;20549;-62
2023/09/04 13:31:07;;;;;;;6.45;5.85;;;;;;;29.71;49.99;101160.03;21020956;28;20033;-60
2023/09/04 13:41:08;;;;;;;7.55;5.97;;;;;;;29.72;49.86;101150.41;21058846;28;20044;-62
2023/09/04 13:51:12;;;;;;;6.32;5.72;;;;;;;29.73;50.09;101180.25;21015669;28;20115;-61
2023/09/04 14:01:14;;;;;;;6.45;5.85;;;;;;;29.75;50.00;101182.75;21002900;28;20040;-61
2023/09/04 14:11:18;;;;;;;6.45;5.85;;;;;;;29.69;50.04;101159.56;21002428;28;20442;-61
2023/09/04 14:21:20;;;;;;;6.97;6.28;;;;;;;29.75;50.15;101157.38;21048642;28;20032;-61
2023/09/04 14:31:22;;;;;;;6.90;6.20;;;;;;;29.75;50.13;101144.09;21072367;28;20044;-61
2023/09/04 14:41:31;;;;;;;6.95;5.60;;;;;;;29.74;50.25;101130.34;21073667;28;20383;-61
2023/09/04 14:51:33;;;;;;;12.05;6.20;;;;;;;29.74;50.41;101102.97;21073841;28;20040;-61
2023/09/04 15:01:37;;;;;;;9.10;6.90;;;;;;;29.81;50.50;101123.00;21046045;28;20391;-61
2023/09/04 15:11:39;;;;;;;11.10;6.72;;;;;;;29.79;50.51;101110.41;20998111;28;20045;-61
2023/09/04 15:21:40;;;;;;;7.20;6.20;;;;;;;29.72;50.35;101105.28;21025570;28;20203;-62
2023/09/04 15:31:42;;;;;;;9.73;6.20;;;;;;;29.82;50.38;101113.38;21003287;28;20048;-63
2023/09/04 15:41:43;;;;;;;7.97;5.80;;;;;;;29.86;50.19;101088.13;21053293;28;20376;-61
2023/09/04 15:51:44;;;;;;;7.60;6.80;;;;;;;29.88;49.97;101086.63;21077841;28;20121;-61
2023/09/04 16:01:46;;;;;;;6.82;6.15;;;;;;;29.87;49.84;101076.53;21078000;28;20099;-62
2023/09/04 16:11:48;;;;;;;7.38;6.65;;;;;;;29.87;49.81;101055.94;21072169;28;20044;-62
2023/09/04 16:21:49;;;;;;;7.20;6.50;;;;;;;29.93;49.73;101050.94;20992765;28;20025;-61
2023/09/04 16:31:50;;;;;;;8.45;6.18;;;;;;;29.94;49.79;101039.31;20992625;28;20109;-61
2023/09/04 16:41:52;;;;;;;7.53;6.30;;;;;;;29.97;49.65;101032.16;20992144;28;20098;-61
2023/09/04 16:51:53;;;;;;;7.07;6.38;;;;;;;29.99;49.60;101015.72;20991108;28;20045;-62
2023/09/04 17:01:55;;;;;;;7.80;6.75;;;;;;;30.00;49.62;101004.06;20990726;28;20036;-62
2023/09/04 17:11:56;;;;;;;6.88;6.18;;;;;;;30.01;49.53;100990.78;20990116;28;20037;-62
2023/09/04 17:21:58;;;;;;;7.07;6.35;;;;;;;30.06;49.49;100987.78;21001961;28;20032;-62
2023/09/04 17:32:02;;;;;;;9.23;6.60;;;;;;;30.08;49.31;100993.91;21004753;28;20449;-61
2023/09/04 17:42:04;;;;;;;7.68;6.70;;;;;;;30.09;49.41;100990.72;21003080;28;20040;-63
2023/09/04 17:52:05;;;;;;;7.00;6.30;;;;;;;30.11;49.46;100976.31;21002485;28;20399;-62
2023/09/04 18:02:09;;;;;;;7.65;6.38;;;;;;;30.14;49.43;100967.16;21002562;28;20028;-62
2023/09/04 18:12:11;;;;;;;6.68;5.97;;;;;;;30.15;49.31;100960.38;21001619;28;20040;-61
2023/09/04 18:22:12;;;;;;;6.80;6.10;;;;;;;30.18;49.45;100948.38;21000461;28;20071;-62
2023/09/04 18:32:14;;;;;;;6.97;6.28;;;;;;;30.20;49.23;100946.03;20999715;28;20557;-61
2023/09/04 18:42:15;;;;;;;7.03;6.15;;;;;;;30.19;49.29;100915.31;20998948;28;20039;-61
2023/09/04 18:52:18;;;;;;;6.35;5.75;;;;;;;30.15;49.10;100903.94;20999031;28;20083;-61
2023/09/04 19:02:22;;;;;;;6.45;5.85;;;;;;;30.28;49.18;100901.97;20997984;28;20041;-62
2023/09/04 19:12:24;;;;;;;6.15;5.55;;;;;;;30.22;49.09;100884.41;20997904;28;20024;-64
2023/09/04 19:22:25;;;;;;;7.55;5.75;;;;;;;30.14;49.07;100862.75;21018187;28;20101;-65
2023/09/04 19:32:27;;;;;;;6.78;6.18;;;;;;;30.33;49.16;100890.44;21080408;28;20044;-63
2023/09/04 19:42:28;;;;;;;7.22;5.38;;;;;;;30.33;49.15;100894.13;21079638;28;20032;-61
2023/09/04 19:52:30;;;;;;;7.07;5.45;;;;;;;30.34;49.26;100890.13;21078674;28;20047;-62
2023/09/04 20:02:31;;;;;;;7.78;6.30;;;;;;;30.37;49.22;100883.75;21078081;28;20040;-62
2023/09/04 20:12:33;;;;;;;6.45;5.85;;;;;;;30.37;49.19;100878.13;21063955;28;20441;-62
2023/09/04 20:22:36;;;;;;;6.07;5.47;;;;;;;30.38;49.30;100881.78;21036017;28;20024;-62
2023/09/04 20:32:37;;;;;;;10.00;6.20;;;;;;;30.38;49.18;100867.69;21076668;28;20040;-62
2023/09/04 20:42:38;;;;;;;7.10;6.25;;;;;;;30.40;49.18;100865.31;21075870;28;20168;-62
2023/09/04 20:52:40;;;;;;;6.68;5.97;;;;;;;30.41;49.37;100861.31;21080658;28;20052;-62
2023/09/04 21:02:42;;;;;;;6.28;5.63;;;;;;;30.42;49.44;100856.50;21085667;28;20540;-63
2023/09/04 23:27:11;;;;;;;7.18;5.78;;;;;;;30.52;49.57;100947.25;21082438;28;20471;-61
2023/09/04 23:37:15;;;;;;;6.70;6.00;;;;;;;30.53;49.63;100959.38;21079591;28;20043;-62
2023/09/04 23:47:17;;;;;;;6.68;5.97;;;;;;;30.55;49.60;100976.78;21079333;28;20437;-63
2023/09/04 23:57:18;;;;;;;7.40;6.57;;;;;;;30.55;49.58;100994.53;21060948;28;20045;-60
